createdAt,value
2019-04-22T00:01:50.334Z,3.93
2019-04-22T00:04:33.851Z,5.43
2019-04-22T00:07:17.423Z,5.60
2019-04-22T00:09:51.536Z,5.00
2019-04-22T00:12:20.809Z,4.93
2019-04-22T00:14:46.554Z,3.87
2019-04-22T00:17:36.643Z,4.40
2019-04-22T00:19:57.722Z,6.13
2019-04-22T00:25:01.122Z,5.57
2019-04-22T00:27:34.988Z,6.20
2019-04-22T00:32:41.865Z,6.07
2019-04-22T00:35:19.799Z,6.10
2019-04-22T00:37:49.283Z,5.80
2019-04-22T00:40:19.769Z,5.60
2019-04-22T00:42:53.819Z,4.53
2019-04-22T00:45:26.962Z,5.77
2019-04-22T00:47:50.584Z,5.57
2019-04-22T00:50:30.516Z,5.67
2019-04-22T00:53:04.435Z,5.97
2019-04-22T00:55:46.361Z,5.87
2019-04-22T00:58:03.484Z,5.50
2019-04-22T01:00:32.500Z,3.83
2019-04-22T01:03:07.409Z,4.00
2019-04-22T01:05:38.774Z,3.60
2019-04-22T01:08:07.099Z,6.50
2019-04-22T01:10:40.085Z,5.43
2019-04-22T01:13:08.138Z,6.20
2019-04-22T01:15:40.236Z,4.97
2019-04-22T01:18:02.471Z,4.73
2019-04-22T01:21:13.648Z,3.97
2019-04-22T01:23:03.862Z,4.70
2019-04-22T01:25:39.101Z,4.57
2019-04-22T01:28:01.307Z,4.70
2019-04-22T01:30:30.313Z,6.03
2019-04-22T01:32:54.198Z,6.43
2019-04-22T01:35:37.457Z,6.57
2019-04-22T01:38:08.042Z,5.20
2019-04-22T01:40:55.615Z,5.97
2019-04-22T01:43:28.199Z,4.27
2019-04-22T01:45:53.301Z,6.00
2019-04-22T01:48:27.011Z,5.50
2019-04-22T01:50:51.521Z,7.50
2019-04-22T01:53:27.359Z,6.27
2019-04-22T01:55:59.008Z,5.73
2019-04-22T01:58:23.664Z,6.00
2019-04-22T02:00:59.727Z,4.60
2019-04-22T02:03:33.394Z,5.43
2019-04-22T02:06:02.255Z,7.20
2019-04-22T02:08:40.553Z,5.00
2019-04-22T02:11:03.211Z,5.63
2019-04-22T02:13:38.182Z,6.93
2019-04-22T02:16:09.989Z,7.60
2019-04-22T02:18:37.976Z,8.07
2019-04-22T02:21:09.379Z,6.47
2019-04-22T02:26:22.812Z,5.97
2019-04-22T02:36:22.623Z,7.40
2019-04-22T02:38:59.060Z,7.60
2019-04-22T02:44:01.728Z,8.30
2019-04-22T02:49:02.008Z,5.83
2019-04-22T02:51:22.354Z,7.63
2019-04-22T02:56:31.313Z,8.37
2019-04-22T02:59:08.081Z,5.90
2019-04-22T03:04:04.551Z,10.23
2019-04-22T03:09:07.590Z,7.40
2019-04-22T03:11:38.055Z,7.77
2019-04-22T03:26:38.898Z,6.53
2019-04-22T03:29:13.351Z,5.33
2019-04-22T03:37:26.975Z,4.90
2019-04-22T03:47:11.365Z,4.20
2019-04-22T03:54:49.503Z,5.50
2019-04-22T04:02:13.955Z,5.13
2019-04-22T04:07:22.131Z,6.40
2019-04-22T04:09:39.079Z,5.97
2019-04-22T04:15:05.819Z,5.30
2019-04-22T04:19:58.607Z,5.47
2019-04-22T04:22:33.867Z,5.50
2019-04-22T04:40:05.721Z,5.33
2019-04-22T04:55:10.333Z,4.53
2019-04-22T04:57:54.427Z,5.10
2019-04-22T05:00:32.749Z,4.87
2019-04-22T05:05:20.680Z,4.87
2019-04-22T05:07:51.291Z,4.47
2019-04-22T05:10:14.184Z,4.77
2019-04-22T05:12:52.291Z,5.70
2019-04-22T05:15:11.613Z,5.43
2019-04-22T05:20:12.943Z,3.33
2019-04-22T05:22:41.287Z,4.20
2019-04-22T05:25:15.169Z,5.73
2019-04-22T05:27:39.734Z,7.07
2019-04-22T05:35:26.578Z,5.70
2019-04-22T05:37:45.638Z,6.70
2019-04-22T05:42:46.298Z,4.57
2019-04-22T05:45:21.618Z,8.47
2019-04-22T05:47:50.720Z,8.73
2019-04-22T05:50:13.240Z,6.97
2019-04-22T05:52:54.158Z,5.77
2019-04-22T05:57:59.700Z,7.43
2019-04-22T06:00:35.626Z,9.37
2019-04-22T06:02:56.730Z,5.43
2019-04-22T06:05:32.925Z,4.53
2019-04-22T06:08:02.425Z,4.80
2019-04-22T06:13:01.044Z,4.50
2019-04-22T06:15:36.390Z,4.83
2019-04-22T06:20:45.482Z,4.37
2019-04-22T06:23:12.848Z,4.80
2019-04-22T06:28:25.184Z,4.27
2019-04-22T06:30:49.074Z,4.47
2019-04-22T06:33:15.298Z,4.40
2019-04-22T06:40:46.855Z,4.70
2019-04-22T06:43:20.074Z,4.57
2019-04-22T06:45:44.962Z,4.43
2019-04-22T06:53:25.584Z,4.20
2019-04-22T06:55:57.944Z,4.07
2019-04-22T06:58:20.077Z,4.40
2019-04-22T07:00:55.031Z,4.37
2019-04-22T07:05:57.118Z,15.17
2019-04-22T07:08:59.303Z,8.90
2019-04-22T07:10:56.389Z,16.03
2019-04-22T07:16:00.357Z,3.83
2019-04-22T07:21:00.964Z,3.63
2019-04-22T07:23:33.072Z,3.80
2019-04-22T07:26:04.261Z,3.80
2019-04-22T07:28:29.483Z,4.00
2019-04-22T07:31:10.339Z,4.10
2019-04-22T07:33:58.326Z,3.33
2019-04-22T07:36:30.685Z,3.80
2019-04-22T07:38:57.826Z,3.50
2019-04-22T07:41:17.136Z,3.37
2019-04-22T07:43:59.854Z,3.53
2019-04-22T07:46:13.409Z,3.60
2019-04-22T07:48:51.958Z,3.57
2019-04-22T07:51:32.832Z,3.60
2019-04-22T07:53:53.964Z,3.53
2019-04-22T07:56:19.697Z,3.60
2019-04-22T07:58:48.605Z,3.30
2019-04-22T08:01:20.461Z,3.27
2019-04-22T08:04:00.089Z,3.80
2019-04-22T08:06:26.401Z,3.80
2019-04-22T08:09:00.331Z,3.30
2019-04-22T08:13:51.251Z,3.23
2019-04-22T08:16:33.659Z,3.80
2019-04-22T08:19:02.978Z,3.90
2019-04-22T08:21:29.885Z,3.90
2019-04-22T08:24:03.084Z,3.40
2019-04-22T08:26:33.249Z,3.77
2019-04-22T08:29:12.374Z,3.57
2019-04-22T08:31:35.985Z,3.40
2019-04-22T08:34:06.383Z,3.50
2019-04-22T08:36:50.793Z,3.90
2019-04-22T08:41:37.525Z,2.73
2019-04-22T08:44:13.362Z,3.67
2019-04-22T08:47:04.353Z,3.00
2019-04-22T08:49:10.482Z,3.33
2019-04-22T08:51:42.796Z,3.50
2019-04-22T08:54:19.733Z,3.03
2019-04-22T08:56:47.059Z,4.33
2019-04-22T08:59:16.515Z,3.37
2019-04-22T09:01:48.946Z,3.17
2019-04-22T09:04:16.613Z,3.47
2019-04-22T09:09:27.299Z,3.58
2019-04-22T09:14:32.418Z,4.00
2019-04-22T09:17:02.269Z,3.17
2019-04-22T09:19:32.262Z,3.20
2019-04-22T09:22:00.464Z,3.45
2019-04-22T09:24:34.318Z,3.47
2019-04-22T09:27:03.953Z,3.55
2019-04-22T09:32:18.679Z,3.62
2019-04-22T09:37:14.437Z,3.17
2019-04-22T09:39:43.734Z,3.62
2019-04-22T09:42:09.117Z,3.90
2019-04-22T09:44:40.226Z,4.20
2019-04-22T09:47:13.158Z,2.92
2019-04-22T09:49:49.679Z,3.35
2019-04-22T09:52:29.446Z,3.08
2019-04-22T09:54:53.112Z,3.47
2019-04-22T09:57:15.589Z,3.30
2019-04-22T09:59:52.550Z,3.33
2019-04-22T10:04:57.223Z,3.50
2019-04-22T10:07:20.910Z,3.10
2019-04-22T10:09:59.872Z,3.70
2019-04-22T10:12:28.044Z,3.02
2019-04-22T10:14:52.117Z,3.45
2019-04-22T10:17:20.397Z,3.72
2019-04-22T10:19:57.881Z,3.15
2019-04-22T10:24:57.044Z,3.35
2019-04-22T10:27:26.961Z,3.37
2019-04-22T10:30:00.345Z,3.10
2019-04-22T10:32:33.580Z,3.20
2019-04-22T10:34:56.602Z,3.70
2019-04-22T10:37:21.901Z,3.22
2019-04-22T10:39:56.234Z,3.30
2019-04-22T10:42:23.024Z,3.15
2019-04-22T10:44:53.781Z,3.35
2019-04-22T10:47:24.065Z,2.80
2019-04-22T10:49:54.192Z,3.40
2019-04-22T10:52:23.735Z,3.10
2019-04-22T10:54:53.611Z,3.15
2019-04-22T10:57:22.899Z,3.27
2019-04-22T10:59:52.456Z,2.90
2019-04-22T11:02:23.469Z,3.25
2019-04-22T11:04:52.717Z,3.10
2019-04-22T11:07:30.847Z,3.17
2019-04-22T11:10:02.639Z,3.40
2019-04-22T11:12:28.022Z,3.10
2019-04-22T11:14:55.866Z,3.25
2019-04-22T11:17:26.014Z,3.37
2019-04-22T11:19:55.690Z,3.50
2019-04-22T11:22:31.263Z,3.22
2019-04-22T11:24:59.194Z,2.95
2019-04-22T11:27:28.390Z,3.70
2019-04-22T11:29:59.387Z,3.00
2019-04-22T11:32:28.713Z,2.90
2019-04-22T11:34:58.095Z,3.10
2019-04-22T11:37:28.288Z,3.17
2019-04-22T11:40:09.213Z,2.98
2019-04-22T11:42:30.009Z,3.08
2019-04-22T11:44:59.505Z,3.67
2019-04-22T11:47:29.687Z,2.87
2019-04-22T11:49:59.723Z,3.02
2019-04-22T11:52:30.866Z,2.77
2019-04-22T11:55:01.097Z,3.00
2019-04-22T11:57:30.946Z,2.83
2019-04-22T12:00:01.030Z,3.10
2019-04-22T12:02:33.124Z,3.05
2019-04-22T12:05:03.727Z,2.80
2019-04-22T12:07:36.301Z,3.15
2019-04-22T12:10:17.850Z,2.80
2019-04-22T12:12:36.573Z,2.95
2019-04-22T12:15:08.767Z,3.30
2019-04-22T12:17:38.246Z,2.90
2019-04-22T12:20:12.513Z,3.05
2019-04-22T12:22:41.065Z,2.75
2019-04-22T12:25:12.531Z,3.25
2019-04-22T12:27:43.155Z,3.35
2019-04-22T12:30:14.613Z,2.95
2019-04-22T12:32:45.389Z,3.02
2019-04-22T12:35:15.607Z,3.58
2019-04-22T12:37:52.865Z,2.92
2019-04-22T12:40:27.038Z,2.90
2019-04-22T12:42:47.408Z,3.17
2019-04-22T12:45:20.359Z,3.22
2019-04-22T12:47:50.425Z,2.95
2019-04-22T12:50:26.249Z,3.22
2019-04-22T12:52:57.771Z,3.42
2019-04-22T12:55:23.762Z,3.08
2019-04-22T12:57:55.398Z,3.15
2019-04-22T13:00:24.879Z,2.98
2019-04-22T13:02:54.748Z,2.90
2019-04-22T13:05:26.916Z,2.77
2019-04-22T13:07:57.766Z,2.70
2019-04-22T13:10:40.632Z,3.05
2019-04-22T13:12:58.633Z,2.62
2019-04-22T13:15:28.900Z,3.17
2019-04-22T13:18:05.763Z,2.62
2019-04-22T13:20:30.466Z,2.75
2019-04-22T13:23:02.261Z,2.70
2019-04-22T13:25:32.418Z,2.70
2019-04-22T13:28:02.996Z,2.62
2019-04-22T13:30:32.663Z,3.10
2019-04-22T13:33:02.936Z,2.47
2019-04-22T13:35:32.201Z,2.60
2019-04-22T13:38:01.418Z,2.70
2019-04-22T13:40:30.847Z,2.70
2019-04-22T13:43:00.787Z,2.83
2019-04-22T13:45:29.969Z,3.00
2019-04-22T13:48:18.602Z,2.70
2019-04-22T13:51:03.751Z,2.75
2019-04-22T13:55:59.274Z,2.58
2019-04-22T13:58:15.835Z,2.45
2019-04-22T14:00:34.639Z,2.67
2019-04-22T14:03:26.632Z,2.40
2019-04-22T14:05:56.305Z,2.55
2019-04-22T14:08:26.951Z,2.90
2019-04-22T14:10:57.860Z,2.77
2019-04-22T14:13:27.969Z,2.70
2019-04-22T14:15:57.244Z,3.12
2019-04-22T14:18:26.512Z,3.98
2019-04-22T14:20:56.664Z,2.90
2019-04-22T14:23:26.814Z,3.40
2019-04-22T14:25:56.682Z,3.60
2019-04-22T14:28:27.323Z,3.17
2019-04-22T14:30:57.031Z,2.90
2019-04-22T14:33:26.220Z,2.80
2019-04-22T14:35:56.399Z,2.83
2019-04-22T14:38:25.959Z,2.90
2019-04-22T14:40:56.168Z,3.47
2019-04-22T14:43:57.468Z,4.97
2019-04-22T14:46:29.226Z,3.40
2019-04-22T14:48:49.731Z,4.00
2019-04-22T14:51:18.460Z,3.00
2019-04-22T14:53:47.268Z,3.10
2019-04-22T14:56:02.159Z,2.90
2019-04-22T14:58:32.957Z,2.60
2019-04-22T15:01:03.338Z,2.70
2019-04-22T15:03:33.398Z,2.60
2019-04-22T15:06:03.969Z,2.65
2019-04-22T15:08:35.045Z,2.83
2019-04-22T15:11:06.275Z,2.47
2019-04-22T15:13:35.873Z,3.00
2019-04-22T15:16:25.685Z,2.50
2019-04-22T15:19:05.571Z,2.65
2019-04-22T15:21:34.906Z,2.77
2019-04-22T15:24:22.952Z,3.62
2019-04-22T15:26:52.771Z,2.92
2019-04-22T15:29:23.184Z,3.00
2019-04-22T15:31:53.472Z,2.87
2019-04-22T15:34:22.933Z,2.50
2019-04-22T15:36:54.003Z,2.47
2019-04-22T15:39:24.971Z,2.58
2019-04-22T15:42:00.392Z,2.58
2019-04-22T15:44:26.099Z,2.55
2019-04-22T15:46:55.493Z,2.15
2019-04-22T15:49:24.738Z,2.35
2019-04-22T15:51:57.561Z,2.22
2019-04-22T15:54:25.620Z,2.25
2019-04-22T15:56:54.978Z,2.30
2019-04-22T15:59:52.556Z,2.50
2019-04-22T16:01:58.618Z,2.60
2019-04-22T16:04:26.457Z,2.10
2019-04-22T16:06:57.133Z,2.30
2019-04-22T16:09:26.902Z,2.27
2019-04-22T16:12:09.410Z,2.70
2019-04-22T16:14:34.258Z,2.20
2019-04-22T16:16:58.922Z,2.20
2019-04-22T16:19:28.170Z,2.22
2019-04-22T16:22:03.957Z,2.08
2019-04-22T16:24:42.683Z,1.72
2019-04-22T16:27:18.698Z,1.57
2019-04-22T16:29:49.542Z,1.62
2019-04-22T16:32:19.280Z,1.80
2019-04-22T16:34:49.885Z,1.80
2019-04-22T16:37:19.184Z,2.30
2019-04-22T16:39:50.480Z,1.98
2019-04-22T16:42:31.674Z,1.90
2019-04-22T16:44:51.343Z,1.90
2019-04-22T16:47:21.699Z,2.67
2019-04-22T16:49:51.886Z,2.00
2019-04-22T16:52:21.857Z,1.92
2019-04-22T16:54:52.426Z,2.12
2019-04-22T16:57:21.999Z,1.87
2019-04-22T16:59:51.197Z,1.80
2019-04-22T17:02:48.274Z,2.10
2019-04-22T17:05:25.466Z,1.77
2019-04-22T17:07:56.366Z,1.75
2019-04-22T17:10:26.145Z,1.82
2019-04-22T17:13:02.325Z,1.42
2019-04-22T17:15:27.073Z,1.85
2019-04-22T17:17:57.183Z,2.08
2019-04-22T17:20:27.110Z,2.12
2019-04-22T17:22:57.773Z,1.80
2019-04-22T17:25:27.120Z,1.92
2019-04-22T17:27:57.370Z,1.60
2019-04-22T17:30:26.976Z,1.90
2019-04-22T17:32:56.659Z,2.00
2019-04-22T17:35:26.314Z,2.65
2019-04-22T17:38:06.778Z,1.85
2019-04-22T17:40:44.984Z,1.90
2019-04-22T17:43:29.970Z,2.30
2019-04-22T17:46:01.627Z,2.10
2019-04-22T17:48:47.617Z,2.02
2019-04-22T17:51:22.610Z,2.00
2019-04-22T17:53:54.991Z,1.80
2019-04-22T17:56:21.916Z,1.80
2019-04-22T17:58:51.227Z,2.08
2019-04-22T18:01:28.055Z,1.80
2019-04-22T18:03:39.109Z,2.08
2019-04-22T18:06:10.347Z,2.20
2019-04-22T18:08:53.578Z,2.00
2019-04-22T18:11:33.484Z,2.30
2019-04-22T18:14:00.141Z,2.08
2019-04-22T18:16:31.965Z,2.20
2019-04-22T18:19:00.539Z,2.10
2019-04-22T18:21:27.494Z,2.10
2019-04-22T18:23:52.888Z,1.93
2019-04-22T18:26:30.636Z,1.90
2019-04-22T18:29:05.725Z,2.10
2019-04-22T18:31:26.749Z,2.27
2019-04-22T18:34:00.420Z,2.37
2019-04-22T18:36:33.249Z,2.58
2019-04-22T18:39:10.069Z,2.40
2019-04-22T18:41:34.151Z,2.07
2019-04-22T18:44:10.022Z,2.37
2019-04-22T18:46:36.690Z,2.13
2019-04-22T18:49:10.963Z,2.27
2019-04-22T18:52:10.514Z,2.77
2019-04-22T18:54:57.068Z,1.80
2019-04-22T18:57:25.978Z,2.50
2019-04-22T18:59:46.464Z,2.07
2019-04-22T19:02:16.265Z,2.00
2019-04-22T19:04:53.881Z,2.03
2019-04-22T19:07:43.325Z,2.00
2019-04-22T19:10:09.867Z,2.13
2019-04-22T19:12:47.307Z,2.10
2019-04-22T19:15:09.377Z,1.80
2019-04-22T19:17:47.709Z,2.00
2019-04-22T19:20:21.789Z,2.23
2019-04-22T19:22:49.209Z,2.00
2019-04-22T19:25:05.857Z,1.90
2019-04-22T19:27:42.182Z,2.30
2019-04-22T19:30:16.453Z,2.20
2019-04-22T19:32:53.802Z,1.97
2019-04-22T19:35:14.441Z,2.37
2019-04-22T19:37:47.812Z,1.97
2019-04-22T19:40:26.007Z,2.13
2019-04-22T19:42:56.837Z,2.40
2019-04-22T19:45:19.950Z,2.20
2019-04-22T19:47:58.285Z,2.50
2019-04-22T19:50:30.862Z,2.23
2019-04-22T19:52:59.444Z,2.30
2019-04-22T19:55:29.390Z,2.30
2019-04-22T19:57:54.362Z,2.63
2019-04-22T20:00:41.999Z,2.33
2019-04-22T20:03:52.698Z,2.53
2019-04-22T20:06:22.025Z,2.40
2019-04-22T20:08:59.703Z,2.30
2019-04-22T20:11:29.664Z,2.80
2019-04-22T20:14:02.674Z,2.50
2019-04-22T20:16:27.405Z,2.60
2019-04-22T20:19:04.687Z,2.80
2019-04-22T20:21:36.354Z,2.67
2019-04-22T20:23:54.959Z,2.73
2019-04-22T20:26:40.787Z,2.90
2019-04-22T20:29:03.031Z,2.80
2019-04-22T20:31:43.056Z,2.67
2019-04-22T20:34:17.343Z,2.80
2019-04-22T20:39:09.171Z,3.00
2019-04-22T20:41:36.739Z,2.97
2019-04-22T20:44:15.945Z,2.73
2019-04-22T20:46:40.769Z,2.60
2019-04-22T20:49:11.723Z,2.97
2019-04-22T20:51:54.356Z,2.97
2019-04-22T20:54:17.745Z,2.67
2019-04-22T20:56:47.755Z,2.27
2019-04-22T20:59:23.113Z,2.70
2019-04-22T21:01:52.252Z,2.93
2019-04-22T21:04:09.021Z,2.47
2019-04-22T21:06:47.250Z,3.47
2019-04-22T21:09:25.458Z,3.10
2019-04-22T21:11:48.393Z,2.70
2019-04-22T21:14:20.117Z,2.60
2019-04-22T21:16:56.447Z,2.70
2019-04-22T21:19:35.222Z,2.87
2019-04-22T21:21:58.095Z,2.80
2019-04-22T21:24:23.758Z,2.80
2019-04-22T21:27:07.317Z,2.70
2019-04-22T21:29:28.160Z,2.70
2019-04-22T21:32:06.232Z,2.77
2019-04-22T21:34:32.248Z,2.87
2019-04-22T21:37:10.483Z,2.70
2019-04-22T21:39:30.212Z,2.50
2019-04-22T21:42:09.186Z,2.80
2019-04-22T21:44:35.087Z,2.90
2019-04-22T21:47:16.023Z,2.60
2019-04-22T21:49:42.955Z,2.73
2019-04-22T21:52:12.941Z,2.63
2019-04-22T21:54:47.200Z,2.80
2019-04-22T21:57:51.021Z,2.93
2019-04-22T22:00:25.078Z,2.90
2019-04-22T22:02:51.809Z,2.80
2019-04-22T22:05:10.091Z,2.73
2019-04-22T22:07:32.941Z,2.37
2019-04-22T22:10:24.304Z,2.93
2019-04-22T22:12:57.464Z,2.60
2019-04-22T22:15:24.852Z,2.70
2019-04-22T22:17:52.736Z,2.50
2019-04-22T22:20:22.710Z,2.40
2019-04-22T22:23:21.864Z,2.60
2019-04-22T22:25:27.984Z,2.97
2019-04-22T22:28:01.839Z,2.97
2019-04-22T22:30:52.569Z,2.13
2019-04-22T22:33:05.975Z,2.47
2019-04-22T22:35:36.002Z,2.70
2019-04-22T22:38:06.612Z,3.27
2019-04-22T22:40:21.983Z,3.10
2019-04-22T22:42:52.952Z,3.07
2019-04-22T22:45:32.056Z,3.13
2019-04-22T22:48:16.638Z,2.53
2019-04-22T22:50:46.083Z,3.03
2019-04-22T22:53:20.697Z,2.60
2019-04-22T22:55:46.213Z,2.90
2019-04-22T22:58:16.570Z,2.97
2019-04-22T23:00:49.824Z,2.77
2019-04-22T23:03:40.268Z,2.92
2019-04-22T23:05:50.497Z,3.10
2019-04-22T23:08:20.439Z,3.15
2019-04-22T23:11:05.010Z,3.47
2019-04-22T23:13:26.054Z,3.45
2019-04-22T23:15:44.982Z,3.00
2019-04-22T23:18:03.783Z,2.90
2019-04-22T23:20:38.205Z,3.00
2019-04-22T23:23:29.755Z,3.00
2019-04-22T23:26:11.817Z,2.70
2019-04-22T23:28:34.884Z,3.33
2019-04-22T23:31:21.084Z,3.17
2019-04-22T23:34:07.838Z,3.15
2019-04-22T23:36:49.913Z,3.27
2019-04-22T23:39:33.378Z,2.92
2019-04-22T23:41:59.324Z,3.20
2019-04-22T23:44:35.074Z,3.00
2019-04-22T23:47:03.125Z,3.03
2019-04-22T23:49:28.192Z,3.10
2019-04-22T23:52:08.589Z,2.67
2019-04-22T23:54:49.597Z,2.60
2019-04-22T23:57:09.399Z,3.43
2019-04-22T23:59:52.741Z,2.67
